Arctic Bay — 9HTD8 — position and weather

sailwx.info

Track history (hours):
 
Tides and Currents Weather Stations Pressure Air Temp Water Temp Dewpoint Dewpoint Depression Visibility Wind Speed Wind Dir Waves Ship Positions

Arctic Bay

Last reported at 2017-Dec-11 10:17 UTC. Time now 2017-Dec-11 15:11 UTC.
Position N 55°25' E 010°59'.

Length 182 m; draft 10.4 m.

Type: Ship. MMSI: 256396000.

Date/timePositionNaut miles runAvg speedWind from/ knotsBaromVisibWave heightAir tempDewpointWater temp
2017-Dec-11 10:17N 55°25' E 010°59'813.5
2017-Dec-11 09:40N 55°18' E 011°03'213.8
2017-Dec-11 09:30N 55°16' E 011°04'812.7
2017-Dec-11 08:51N 55°07' E 011°03'513.7
2017-Dec-11 08:30N 55°03' E 011°02'612.7
2017-Dec-11 08:00N 54°57' E 010°56'5 9.6
2017-Dec-11 07:30N 54°53' E 010°51'510.8
2017-Dec-11 07:01N 54°48' E 010°50'611.3
2017-Dec-11 06:30N 54°43' E 010°47'510.6
2017-Dec-11 06:00N 54°39' E 010°53'613.0
2017-Dec-11 05:31N 54°36' E 011°03'713.8
2017-Dec-11 05:00N 54°35' E 011°15'714.1
2017-Dec-11 04:30N 54°32' E 011°26'714.4
2017-Dec-11 04:01N 54°29' E 011°37'713.9
2017-Dec-11 03:30N 54°26' E 011°48'714.1
2017-Dec-11 03:00N 54°26' E 011°60'713.6
2017-Dec-11 02:31N 54°27' E 012°11'6810.9
2017-Dec-10 20:15N 55°02' E 013°53'712.2
2017-Dec-10 19:40N 55°05' E 014°04'211.8
2017-Dec-10 19:29N 55°06' E 014°07'611.8
2017-Dec-10 19:00N 55°11' E 014°13'611.9
2017-Dec-10 18:30N 55°16' E 014°19'612.1
2017-Dec-10 18:00N 55°20' E 014°26'612.1
2017-Dec-10 17:30N 55°25' E 014°33'612.1
2017-Dec-10 17:00N 55°28' E 014°42'912.3
2017-Dec-10 16:19N 55°32' E 014°55'412.3
2017-Dec-10 15:57N 55°34' E 015°02'612.1
2017-Dec-10 15:28N 55°37' E 015°12'512.0
2017-Dec-10 15:00N 55°39' E 015°20'611.6
2017-Dec-10 14:30N 55°41' E 015°30'611.6
2017-Dec-10 14:00N 55°41' E 015°40'611.3
2017-Dec-10 13:30N 55°43' E 015°50'611.2
2017-Dec-10 13:00N 55°44' E 015°60'510.9
2017-Dec-10 12:30N 55°45' E 016°09'510.8
2017-Dec-10 12:00N 55°47' E 016°18'510.7
2017-Dec-10 11:30N 55°48' E 016°28'610.6
2017-Dec-10 10:59N 55°50' E 016°37'  
2017-Dec-07 01:05N 56°23' E 017°30'413.7
2017-Dec-07 00:49N 56°20' E 017°25'513.6
2017-Dec-07 00:26N 56°17' E 017°18'3113.5
2017-Dec-06 22:09N 55°59' E 016°33'213.3
2017-Dec-06 22:00N 55°58' E 016°30'713.2
2017-Dec-06 21:31N 55°55' E 016°19'713.4
2017-Dec-06 21:00N 55°52' E 016°09'  
2017-Dec-04 09:50N 52°07' E 003°36'3 7.9
2017-Dec-04 09:30N 52°07' E 003°40'0 0.2
2017-Dec-04 08:56N 52°07' E 003°40'0 0.0
2017-Dec-04 08:23N 52°07' E 003°40'0 0.0
2017-Dec-04 07:56N 52°07' E 003°41'0 0.0
2017-Dec-04 07:26N 52°07' E 003°41'0 0.0
2017-Dec-04 06:59N 52°07' E 003°41'0 0.0
2017-Dec-04 06:29N 52°07' E 003°41'0 0.1
2017-Dec-04 05:38N 52°07' E 003°41'0 0.1
2017-Dec-04 05:29N 52°07' E 003°41'0 0.0
2017-Dec-04 04:38N 52°07' E 003°41'0 0.0
2017-Dec-04 04:08N 52°07' E 003°41'0 0.1
2017-Dec-04 03:50N 52°07' E 003°41'0 0.1
2017-Dec-04 03:29N 52°07' E 003°41'0 0.1
2017-Dec-04 02:56N 52°07' E 003°41'0 0.1
2017-Dec-04 02:26N 52°07' E 003°41'0 0.0
2017-Dec-04 01:50N 52°07' E 003°41'0 0.0
2017-Dec-04 01:26N 52°07' E 003°41'0 0.1
2017-Dec-04 00:56N 52°07' E 003°41'0 0.2
2017-Dec-04 00:23N 52°07' E 003°41'0 0.1
2017-Dec-03 23:56N 52°07' E 003°41'0 0.1
2017-Dec-03 23:29N 52°07' E 003°41'0 0.1
2017-Dec-03 22:59N 52°07' E 003°41'0 0.0
2017-Dec-03 22:14N 52°07' E 003°41'0 0.0
2017-Dec-03 21:50N 52°07' E 003°40'0 0.0
2017-Dec-03 21:23N 52°07' E 003°40'0 0.0
2017-Dec-03 20:53N 52°07' E 003°40'0 0.0
2017-Dec-03 20:20N 52°07' E 003°40'0 0.0
2017-Dec-03 19:50N 52°07' E 003°40'0 0.0
2017-Dec-03 19:26N 52°07' E 003°40'0 0.1
2017-Dec-03 18:56N 52°07' E 003°40'0 0.0
2017-Dec-03 18:23N 52°07' E 003°40'0 0.1
2017-Dec-03 17:59N 52°07' E 003°41'0 0.0
2017-Dec-03 17:26N 52°07' E 003°41'0 0.0
2017-Dec-03 16:59N 52°07' E 003°41'0 0.0
2017-Dec-03 16:20N 52°07' E 003°41'0 0.1
2017-Dec-03 15:44N 52°07' E 003°41'0 0.1
2017-Dec-03 15:29N 52°07' E 003°41'0 0.1
2017-Dec-03 14:38N 52°07' E 003°41'0 0.1
2017-Dec-03 14:26N 52°07' E 003°41'0 0.0
2017-Dec-03 13:38N 52°07' E 003°41'0 0.0
2017-Dec-03 12:20N 52°07' E 003°41'0 0.1
2017-Dec-03 11:14N 52°07' E 003°41'0 0.1
2017-Dec-03 10:56N 52°07' E 003°41'0 0.1
2017-Dec-03 10:26N 52°07' E 003°41'0 0.0
2017-Dec-03 09:38N 52°07' E 003°40'0 0.0
2017-Dec-03 09:20N 52°07' E 003°40'0 0.0
2017-Dec-03 08:56N 52°07' E 003°40'0 0.1
2017-Dec-03 08:26N 52°07' E 003°40'0 0.0
2017-Dec-03 07:56N 52°07' E 003°40'0 0.3
2017-Dec-03 07:29N 52°07' E 003°41'3 5.6
2017-Dec-03 07:00N 52°05' E 003°44'5 9.6
2017-Dec-03 06:30N 52°03' E 003°51'4 7.3
2017-Dec-03 06:00N 52°02' E 003°56'612.2
2017-Dec-03 05:30N 51°59' E 004°05'3 5.3
2017-Dec-03 04:58N 51°57' E 004°09'0 0.0
2017-Dec-03 04:28N 51°57' E 004°09'0 0.0
2017-Dec-03 03:58N 51°57' E 004°09'0 0.0
2017-Dec-03 03:22N 51°57' E 004°09'0 0.0
2017-Dec-03 02:58N 51°57' E 004°09'0 0.0
2017-Dec-03 02:28N 51°57' E 004°09'0 0.0
2017-Dec-03 01:55N 51°57' E 004°09'0 0.0
2017-Dec-03 01:25N 51°57' E 004°09'0 0.0
2017-Dec-03 00:55N 51°57' E 004°09'0 0.0
2017-Dec-03 00:28N 51°57' E 004°09'0 0.0
2017-Dec-02 23:58N 51°57' E 004°09'0 0.0
2017-Dec-02 23:28N 51°57' E 004°09'0 0.0
2017-Dec-02 22:58N 51°57' E 004°08'0 0.0
2017-Dec-02 22:28N 51°57' E 004°09'0 0.0
2017-Dec-02 21:58N 51°57' E 004°09'0 0.0
2017-Dec-02 21:28N 51°57' E 004°09'0 0.0
2017-Dec-02 20:49N 51°57' E 004°08'0 0.0
2017-Dec-02 20:22N 51°57' E 004°09'0 0.0
2017-Dec-02 19:55N 51°57' E 004°09'0 0.0
2017-Dec-02 19:25N 51°57' E 004°09'0 0.0
2017-Dec-02 18:55N 51°57' E 004°09'0 0.0
2017-Dec-02 18:28N 51°57' E 004°09'0 0.0
2017-Dec-02 17:58N 51°57' E 004°09'0 0.0
2017-Dec-02 17:22N 51°57' E 004°09'0 0.0
2017-Dec-02 16:58N 51°57' E 004°09'0 0.0
2017-Dec-02 16:25N 51°57' E 004°08'0 0.0
2017-Dec-02 15:49N 51°57' E 004°09'0 0.0
2017-Dec-02 15:22N 51°57' E 004°09'0 0.0
2017-Dec-02 14:58N 51°57' E 004°09'0 0.0
2017-Dec-02 14:28N 51°57' E 004°09'0 0.0
2017-Dec-02 13:58N 51°57' E 004°09'0 0.0
2017-Dec-02 13:28N 51°57' E 004°09'0 0.0
2017-Dec-02 12:49N 51°57' E 004°09'0 0.0
2017-Dec-02 12:28N 51°57' E 004°09'0 0.0
2017-Dec-02 11:58N 51°57' E 004°09'0 0.0
2017-Dec-02 11:25N 51°57' E 004°09'0 0.0
2017-Dec-02 10:58N 51°57' E 004°09'0 0.0
2017-Dec-02 10:28N 51°57' E 004°09'0 0.0
2017-Dec-02 09:58N 51°57' E 004°09'0 0.0
2017-Dec-02 09:28N 51°57' E 004°09'0 0.0
2017-Dec-02 08:43N 51°57' E 004°09'0 0.0
2017-Dec-02 08:25N 51°57' E 004°09'0 0.0
2017-Dec-02 07:58N 51°57' E 004°09'0 0.0
2017-Dec-02 07:28N 51°57' E 004°09'0 0.0
2017-Dec-02 06:58N 51°57' E 004°09'0 0.0
2017-Dec-02 06:28N 51°57' E 004°09'0 0.0
2017-Dec-02 05:58N 51°57' E 004°09'0 0.0
2017-Dec-02 05:25N 51°57' E 004°08'0 0.0
2017-Dec-02 04:58N 51°57' E 004°09'0 0.0
2017-Dec-02 04:28N 51°57' E 004°08'0 0.0
2017-Dec-02 03:55N 51°57' E 004°09'0 0.0
2017-Dec-02 03:25N 51°57' E 004°09'0 0.0
2017-Dec-02 02:58N 51°57' E 004°09'0 0.0
2017-Dec-02 02:25N 51°57' E 004°09'0 0.0
2017-Dec-02 01:52N 51°57' E 004°09'0 0.0
2017-Dec-02 01:28N 51°57' E 004°09'0 0.0
2017-Dec-02 00:55N 51°57' E 004°09'0 0.0
2017-Dec-02 00:28N 51°57' E 004°09'0 0.0
2017-Dec-01 23:58N 51°57' E 004°09'0 0.0
2017-Dec-01 23:28N 51°57' E 004°09'0 0.0
2017-Dec-01 22:58N 51°57' E 004°09'0 0.0
2017-Dec-01 22:28N 51°57' E 004°09'0 0.0
2017-Dec-01 21:55N 51°57' E 004°09'0 0.3
2017-Dec-01 21:31N 51°57' E 004°09'2 4.5
2017-Dec-01 21:00N 51°59' E 004°05'510.0
2017-Dec-01 20:31N 51°60' E 003°58'5 9.9
2017-Dec-01 20:00N 51°59' E 003°50'4 8.7
2017-Dec-01 19:30N 51°59' E 003°42'2010.1
2017-Dec-01 17:30N 51°53' E 003°11'611.2
2017-Dec-01 16:59N 51°51' E 003°02'2611.3
2017-Dec-01 14:38N 51°37' E 002°25'210.4
2017-Dec-01 14:28N 51°36' E 002°24'4 9.2
2017-Dec-01 14:00N 51°33' E 002°19'510.8
2017-Dec-01 13:30N 51°29' E 002°13'611.6
2017-Dec-01 13:00N 51°25' E 002°06'611.7
2017-Dec-01 12:30N 51°21' E 002°00'612.9
2017-Dec-01 12:00N 51°16' E 001°53'714.5
2017-Dec-01 11:31N 51°10' E 001°45'714.8
2017-Dec-01 11:01N 51°04' E 001°39'714.8
2017-Dec-01 10:30N 50°59' E 001°31'  
Track history (hours):
 
Tides and Currents Weather Stations Pressure Air Temp Water Temp Dewpoint Dewpoint Depression Visibility Wind Speed Wind Dir Waves Ship Positions

Arctic Bay

Last reported at 2017-Dec-11 10:17 UTC. Time now 2017-Dec-11 15:11 UTC.
Position N 55°25' E 010°59'.

Length 182 m; draft 10.4 m.

Type: Ship. MMSI: 256396000.

Date/timePositionNaut miles runAvg speedWind from/ knotsBaromVisibWave heightAir tempDewpointWater temp
2017-Dec-11 10:17N 55°25' E 010°59'813.5
2017-Dec-11 09:40N 55°18' E 011°03'213.8
2017-Dec-11 09:30N 55°16' E 011°04'812.7
2017-Dec-11 08:51N 55°07' E 011°03'513.7
2017-Dec-11 08:30N 55°03' E 011°02'612.7
2017-Dec-11 08:00N 54°57' E 010°56'5 9.6
2017-Dec-11 07:30N 54°53' E 010°51'510.8
2017-Dec-11 07:01N 54°48' E 010°50'611.3
2017-Dec-11 06:30N 54°43' E 010°47'510.6
2017-Dec-11 06:00N 54°39' E 010°53'613.0
2017-Dec-11 05:31N 54°36' E 011°03'713.8
2017-Dec-11 05:00N 54°35' E 011°15'714.1
2017-Dec-11 04:30N 54°32' E 011°26'714.4
2017-Dec-11 04:01N 54°29' E 011°37'713.9
2017-Dec-11 03:30N 54°26' E 011°48'714.1
2017-Dec-11 03:00N 54°26' E 011°60'713.6
2017-Dec-11 02:31N 54°27' E 012°11'6810.9
2017-Dec-10 20:15N 55°02' E 013°53'712.2
2017-Dec-10 19:40N 55°05' E 014°04'211.8
2017-Dec-10 19:29N 55°06' E 014°07'611.8
2017-Dec-10 19:00N 55°11' E 014°13'611.9
2017-Dec-10 18:30N 55°16' E 014°19'612.1
2017-Dec-10 18:00N 55°20' E 014°26'612.1
2017-Dec-10 17:30N 55°25' E 014°33'612.1
2017-Dec-10 17:00N 55°28' E 014°42'912.3
2017-Dec-10 16:19N 55°32' E 014°55'412.3
2017-Dec-10 15:57N 55°34' E 015°02'612.1
2017-Dec-10 15:28N 55°37' E 015°12'512.0
2017-Dec-10 15:00N 55°39' E 015°20'611.6
2017-Dec-10 14:30N 55°41' E 015°30'611.6
2017-Dec-10 14:00N 55°41' E 015°40'611.3
2017-Dec-10 13:30N 55°43' E 015°50'611.2
2017-Dec-10 13:00N 55°44' E 015°60'510.9
2017-Dec-10 12:30N 55°45' E 016°09'510.8
2017-Dec-10 12:00N 55°47' E 016°18'510.7
2017-Dec-10 11:30N 55°48' E 016°28'610.6
2017-Dec-10 10:59N 55°50' E 016°37'  
2017-Dec-07 01:05N 56°23' E 017°30'413.7
2017-Dec-07 00:49N 56°20' E 017°25'513.6
2017-Dec-07 00:26N 56°17' E 017°18'3113.5
2017-Dec-06 22:09N 55°59' E 016°33'213.3
2017-Dec-06 22:00N 55°58' E 016°30'713.2
2017-Dec-06 21:31N 55°55' E 016°19'713.4
2017-Dec-06 21:00N 55°52' E 016°09'  
2017-Dec-04 09:50N 52°07' E 003°36'3 7.9
2017-Dec-04 09:30N 52°07' E 003°40'0 0.2
2017-Dec-04 08:56N 52°07' E 003°40'0 0.0
2017-Dec-04 08:23N 52°07' E 003°40'0 0.0
2017-Dec-04 07:56N 52°07' E 003°41'0 0.0
2017-Dec-04 07:26N 52°07' E 003°41'0 0.0
2017-Dec-04 06:59N 52°07' E 003°41'0 0.0
2017-Dec-04 06:29N 52°07' E 003°41'0 0.1
2017-Dec-04 05:38N 52°07' E 003°41'0 0.1
2017-Dec-04 05:29N 52°07' E 003°41'0 0.0
2017-Dec-04 04:38N 52°07' E 003°41'0 0.0
2017-Dec-04 04:08N 52°07' E 003°41'0 0.1
2017-Dec-04 03:50N 52°07' E 003°41'0 0.1
2017-Dec-04 03:29N 52°07' E 003°41'0 0.1
2017-Dec-04 02:56N 52°07' E 003°41'0 0.1
2017-Dec-04 02:26N 52°07' E 003°41'0 0.0
2017-Dec-04 01:50N 52°07' E 003°41'0 0.0
2017-Dec-04 01:26N 52°07' E 003°41'0 0.1
2017-Dec-04 00:56N 52°07' E 003°41'0 0.2
2017-Dec-04 00:23N 52°07' E 003°41'0 0.1
2017-Dec-03 23:56N 52°07' E 003°41'0 0.1
2017-Dec-03 23:29N 52°07' E 003°41'0 0.1
2017-Dec-03 22:59N 52°07' E 003°41'0 0.0
2017-Dec-03 22:14N 52°07' E 003°41'0 0.0
2017-Dec-03 21:50N 52°07' E 003°40'0 0.0
2017-Dec-03 21:23N 52°07' E 003°40'0 0.0
2017-Dec-03 20:53N 52°07' E 003°40'0 0.0
2017-Dec-03 20:20N 52°07' E 003°40'0 0.0
2017-Dec-03 19:50N 52°07' E 003°40'0 0.0
2017-Dec-03 19:26N 52°07' E 003°40'0 0.1
2017-Dec-03 18:56N 52°07' E 003°40'0 0.0
2017-Dec-03 18:23N 52°07' E 003°40'0 0.1
2017-Dec-03 17:59N 52°07' E 003°41'0 0.0
2017-Dec-03 17:26N 52°07' E 003°41'0 0.0
2017-Dec-03 16:59N 52°07' E 003°41'0 0.0
2017-Dec-03 16:20N 52°07' E 003°41'0 0.1
2017-Dec-03 15:44N 52°07' E 003°41'0 0.1
2017-Dec-03 15:29N 52°07' E 003°41'0 0.1
2017-Dec-03 14:38N 52°07' E 003°41'0 0.1
2017-Dec-03 14:26N 52°07' E 003°41'0 0.0
2017-Dec-03 13:38N 52°07' E 003°41'0 0.0
2017-Dec-03 12:20N 52°07' E 003°41'0 0.1
2017-Dec-03 11:14N 52°07' E 003°41'0 0.1
2017-Dec-03 10:56N 52°07' E 003°41'0 0.1
2017-Dec-03 10:26N 52°07' E 003°41'0 0.0
2017-Dec-03 09:38N 52°07' E 003°40'0 0.0
2017-Dec-03 09:20N 52°07' E 003°40'0 0.0
2017-Dec-03 08:56N 52°07' E 003°40'0 0.1
2017-Dec-03 08:26N 52°07' E 003°40'0 0.0
2017-Dec-03 07:56N 52°07' E 003°40'0 0.3
2017-Dec-03 07:29N 52°07' E 003°41'3 5.6
2017-Dec-03 07:00N 52°05' E 003°44'5 9.6
2017-Dec-03 06:30N 52°03' E 003°51'4 7.3
2017-Dec-03 06:00N 52°02' E 003°56'612.2
2017-Dec-03 05:30N 51°59' E 004°05'3 5.3
2017-Dec-03 04:58N 51°57' E 004°09'0 0.0
2017-Dec-03 04:28N 51°57' E 004°09'0 0.0
2017-Dec-03 03:58N 51°57' E 004°09'0 0.0
2017-Dec-03 03:22N 51°57' E 004°09'0 0.0
2017-Dec-03 02:58N 51°57' E 004°09'0 0.0
2017-Dec-03 02:28N 51°57' E 004°09'0 0.0
2017-Dec-03 01:55N 51°57' E 004°09'0 0.0
2017-Dec-03 01:25N 51°57' E 004°09'0 0.0
2017-Dec-03 00:55N 51°57' E 004°09'0 0.0
2017-Dec-03 00:28N 51°57' E 004°09'0 0.0
2017-Dec-02 23:58N 51°57' E 004°09'0 0.0
2017-Dec-02 23:28N 51°57' E 004°09'0 0.0
2017-Dec-02 22:58N 51°57' E 004°08'0 0.0
2017-Dec-02 22:28N 51°57' E 004°09'0 0.0
2017-Dec-02 21:58N 51°57' E 004°09'0 0.0
2017-Dec-02 21:28N 51°57' E 004°09'0 0.0
2017-Dec-02 20:49N 51°57' E 004°08'0 0.0
2017-Dec-02 20:22N 51°57' E 004°09'0 0.0
2017-Dec-02 19:55N 51°57' E 004°09'0 0.0
2017-Dec-02 19:25N 51°57' E 004°09'0 0.0
2017-Dec-02 18:55N 51°57' E 004°09'0 0.0
2017-Dec-02 18:28N 51°57' E 004°09'0 0.0
2017-Dec-02 17:58N 51°57' E 004°09'0 0.0
2017-Dec-02 17:22N 51°57' E 004°09'0 0.0
2017-Dec-02 16:58N 51°57' E 004°09'0 0.0
2017-Dec-02 16:25N 51°57' E 004°08'0 0.0
2017-Dec-02 15:49N 51°57' E 004°09'0 0.0
2017-Dec-02 15:22N 51°57' E 004°09'0 0.0
2017-Dec-02 14:58N 51°57' E 004°09'0 0.0
2017-Dec-02 14:28N 51°57' E 004°09'0 0.0
2017-Dec-02 13:58N 51°57' E 004°09'0 0.0
2017-Dec-02 13:28N 51°57' E 004°09'0 0.0
2017-Dec-02 12:49N 51°57' E 004°09'0 0.0
2017-Dec-02 12:28N 51°57' E 004°09'0 0.0
2017-Dec-02 11:58N 51°57' E 004°09'0 0.0
2017-Dec-02 11:25N 51°57' E 004°09'0 0.0
2017-Dec-02 10:58N 51°57' E 004°09'0 0.0
2017-Dec-02 10:28N 51°57' E 004°09'0 0.0
2017-Dec-02 09:58N 51°57' E 004°09'0 0.0
2017-Dec-02 09:28N 51°57' E 004°09'0 0.0
2017-Dec-02 08:43N 51°57' E 004°09'0 0.0
2017-Dec-02 08:25N 51°57' E 004°09'0 0.0
2017-Dec-02 07:58N 51°57' E 004°09'0 0.0
2017-Dec-02 07:28N 51°57' E 004°09'0 0.0
2017-Dec-02 06:58N 51°57' E 004°09'0 0.0
2017-Dec-02 06:28N 51°57' E 004°09'0 0.0
2017-Dec-02 05:58N 51°57' E 004°09'0 0.0
2017-Dec-02 05:25N 51°57' E 004°08'0 0.0
2017-Dec-02 04:58N 51°57' E 004°09'0 0.0
2017-Dec-02 04:28N 51°57' E 004°08'0 0.0
2017-Dec-02 03:55N 51°57' E 004°09'0 0.0
2017-Dec-02 03:25N 51°57' E 004°09'0 0.0
2017-Dec-02 02:58N 51°57' E 004°09'0 0.0
2017-Dec-02 02:25N 51°57' E 004°09'0 0.0
2017-Dec-02 01:52N 51°57' E 004°09'0 0.0
2017-Dec-02 01:28N 51°57' E 004°09'0 0.0
2017-Dec-02 00:55N 51°57' E 004°09'0 0.0
2017-Dec-02 00:28N 51°57' E 004°09'0 0.0
2017-Dec-01 23:58N 51°57' E 004°09'0 0.0
2017-Dec-01 23:28N 51°57' E 004°09'0 0.0
2017-Dec-01 22:58N 51°57' E 004°09'0 0.0
2017-Dec-01 22:28N 51°57' E 004°09'0 0.0
2017-Dec-01 21:55N 51°57' E 004°09'0 0.3
2017-Dec-01 21:31N 51°57' E 004°09'2 4.5
2017-Dec-01 21:00N 51°59' E 004°05'510.0
2017-Dec-01 20:31N 51°60' E 003°58'5 9.9
2017-Dec-01 20:00N 51°59' E 003°50'4 8.7
2017-Dec-01 19:30N 51°59' E 003°42'2010.1
2017-Dec-01 17:30N 51°53' E 003°11'611.2
2017-Dec-01 16:59N 51°51' E 003°02'2611.3
2017-Dec-01 14:38N 51°37' E 002°25'210.4
2017-Dec-01 14:28N 51°36' E 002°24'4 9.2
2017-Dec-01 14:00N 51°33' E 002°19'510.8
2017-Dec-01 13:30N 51°29' E 002°13'611.6
2017-Dec-01 13:00N 51°25' E 002°06'611.7
2017-Dec-01 12:30N 51°21' E 002°00'612.9
2017-Dec-01 12:00N 51°16' E 001°53'714.5
2017-Dec-01 11:31N 51°10' E 001°45'714.8
2017-Dec-01 11:01N 51°04' E 001°39'714.8
2017-Dec-01 10:30N 50°59' E 001°31'  

Dump ship's entire track history